createdAt,value
2019-04-30T00:00:06.927Z,6.10
2019-04-30T00:01:07.421Z,6.10
2019-04-30T00:02:06.905Z,6.18
2019-04-30T00:03:06.859Z,6.11
2019-04-30T00:04:05.891Z,6.10
2019-04-30T00:05:10.001Z,6.07
2019-04-30T00:06:07.473Z,6.03
2019-04-30T00:07:10.114Z,6.06
2019-04-30T00:08:06.849Z,6.07
2019-04-30T00:09:09.698Z,6.00
2019-04-30T00:10:06.818Z,6.09
2019-04-30T00:11:05.809Z,5.98
2019-04-30T00:12:05.799Z,5.96
2019-04-30T00:13:06.146Z,6.00
2019-04-30T00:14:05.790Z,5.91
2019-04-30T00:15:06.239Z,5.83
2019-04-30T00:16:05.755Z,5.89
2019-04-30T00:17:06.325Z,5.81
2019-04-30T00:18:05.753Z,5.85
2019-04-30T00:19:06.194Z,5.77
2019-04-30T00:20:05.711Z,5.86
2019-04-30T00:21:10.056Z,5.85
2019-04-30T00:22:06.689Z,5.88
2019-04-30T00:23:05.685Z,5.88
2019-04-30T00:24:10.137Z,5.82
2019-04-30T00:25:05.658Z,5.75
2019-04-30T00:26:10.121Z,5.81
2019-04-30T00:27:05.637Z,5.77
2019-04-30T00:28:08.732Z,5.74
2019-04-30T00:29:05.627Z,5.88
2019-04-30T00:30:08.946Z,5.81
2019-04-30T00:31:05.594Z,5.85
2019-04-30T00:32:07.868Z,5.75
2019-04-30T00:33:05.831Z,5.74
2019-04-30T00:34:05.572Z,5.77
2019-04-30T00:35:07.326Z,5.75
2019-04-30T00:36:06.539Z,5.74
2019-04-30T00:37:07.387Z,5.78
2019-04-30T00:38:06.519Z,5.83
2019-04-30T00:39:07.158Z,5.75
2019-04-30T00:40:06.496Z,5.83
2019-04-30T00:41:06.865Z,5.78
2019-04-30T00:42:05.474Z,5.78
2019-04-30T00:43:09.040Z,5.81
2019-04-30T00:44:05.484Z,5.78
2019-04-30T00:45:09.573Z,5.77
2019-04-30T00:46:05.433Z,5.75
2019-04-30T00:47:08.243Z,5.75
2019-04-30T00:48:05.986Z,5.71
2019-04-30T00:49:09.850Z,5.67
2019-04-30T00:50:06.388Z,5.71
2019-04-30T00:51:08.933Z,5.67
2019-04-30T00:52:06.366Z,5.66
2019-04-30T00:53:12.215Z,5.68
2019-04-30T00:54:06.354Z,5.59
2019-04-30T00:55:08.906Z,5.70
2019-04-30T00:56:05.790Z,5.66
2019-04-30T00:57:07.588Z,5.64
2019-04-30T00:58:05.906Z,5.60
2019-04-30T00:59:07.027Z,5.59
2019-04-30T01:00:06.280Z,5.59
2019-04-30T01:01:08.142Z,5.57
2019-04-30T01:02:06.073Z,5.60
2019-04-30T01:03:08.368Z,5.48
2019-04-30T01:04:05.263Z,5.56
2019-04-30T01:05:08.920Z,5.57
2019-04-30T01:06:05.462Z,5.57
2019-04-30T01:07:08.484Z,5.52
2019-04-30T01:08:07.017Z,5.45
2019-04-30T01:09:08.417Z,5.55
2019-04-30T01:10:05.214Z,5.52
2019-04-30T01:11:09.430Z,5.50
2019-04-30T01:12:05.583Z,5.46
2019-04-30T01:13:08.079Z,5.45
2019-04-30T01:14:06.142Z,5.46
2019-04-30T01:15:06.442Z,5.40
2019-04-30T01:16:06.108Z,5.41
2019-04-30T01:17:08.876Z,5.41
2019-04-30T01:18:06.090Z,5.38
2019-04-30T01:19:05.769Z,5.41
2019-04-30T01:20:05.067Z,5.40
2019-04-30T01:21:09.772Z,5.41
2019-04-30T01:22:06.044Z,5.38
2019-04-30T01:23:08.009Z,5.32
2019-04-30T01:24:06.033Z,5.37
2019-04-30T01:25:11.707Z,5.35
2019-04-30T01:26:06.011Z,5.31
2019-04-30T01:27:06.718Z,5.25
2019-04-30T01:28:04.981Z,5.32
2019-04-30T01:29:04.979Z,5.32
2019-04-30T01:30:04.961Z,5.25
2019-04-30T01:31:04.954Z,5.32
2019-04-30T01:32:04.943Z,5.35
2019-04-30T01:33:04.929Z,5.23
2019-04-30T01:34:09.341Z,5.22
2019-04-30T01:35:05.908Z,5.27
2019-04-30T01:36:09.558Z,5.32
2019-04-30T01:37:05.886Z,5.30
2019-04-30T01:38:11.170Z,5.27
2019-04-30T01:39:05.873Z,5.25
2019-04-30T01:40:10.585Z,5.25
2019-04-30T01:41:05.842Z,5.34
2019-04-30T01:42:09.892Z,5.20
2019-04-30T01:43:05.828Z,5.27
2019-04-30T01:44:08.687Z,5.09
2019-04-30T01:45:05.797Z,5.14
2019-04-30T01:46:09.403Z,5.14
2019-04-30T01:47:05.776Z,5.10
2019-04-30T01:48:08.833Z,5.09
2019-04-30T01:49:05.799Z,5.14
2019-04-30T01:50:05.087Z,5.13
2019-04-30T01:51:04.734Z,5.10
2019-04-30T01:52:04.722Z,5.14
2019-04-30T01:53:08.872Z,5.14
2019-04-30T01:54:05.704Z,5.07
2019-04-30T01:55:04.706Z,5.13
2019-04-30T01:56:04.684Z,5.14
2019-04-30T01:57:04.673Z,5.14
2019-04-30T01:58:04.659Z,5.12
2019-04-30T01:59:04.649Z,5.09
2019-04-30T02:00:04.648Z,5.12
2019-04-30T02:01:04.630Z,5.17
2019-04-30T02:02:04.622Z,5.09
2019-04-30T02:03:04.607Z,5.09
2019-04-30T02:04:04.596Z,5.07
2019-04-30T02:05:04.594Z,5.05
2019-04-30T02:06:04.577Z,5.07
2019-04-30T02:07:04.569Z,4.92
2019-04-30T02:08:04.554Z,5.02
2019-04-30T02:09:04.559Z,4.96
2019-04-30T02:10:04.541Z,5.01
2019-04-30T02:11:04.522Z,4.94
2019-04-30T02:12:04.516Z,4.95
2019-04-30T02:13:04.502Z,4.96
2019-04-30T02:14:04.492Z,4.96
2019-04-30T02:15:04.487Z,4.96
2019-04-30T02:16:04.469Z,4.94
2019-04-30T02:17:04.457Z,4.86
2019-04-30T02:18:04.449Z,4.92
2019-04-30T02:19:04.436Z,4.95
2019-04-30T02:20:04.439Z,4.95
2019-04-30T02:21:04.416Z,4.94
2019-04-30T02:22:04.406Z,4.91
2019-04-30T02:23:04.394Z,4.99
2019-04-30T02:24:04.383Z,4.99
2019-04-30T02:25:04.385Z,4.88
2019-04-30T02:26:04.362Z,4.98
2019-04-30T02:27:04.351Z,4.96
2019-04-30T02:28:04.361Z,4.94
2019-04-30T02:29:04.332Z,4.94
2019-04-30T02:30:04.492Z,4.95
2019-04-30T02:31:04.311Z,4.95
2019-04-30T02:32:04.302Z,4.96
2019-04-30T02:33:04.292Z,4.88
2019-04-30T02:34:04.279Z,4.88
2019-04-30T02:35:04.313Z,4.94
2019-04-30T02:36:04.272Z,4.91
2019-04-30T02:37:04.251Z,4.89
2019-04-30T02:38:04.238Z,4.86
2019-04-30T02:39:04.226Z,4.76
2019-04-30T02:40:04.217Z,4.76
2019-04-30T02:41:04.213Z,4.83
2019-04-30T02:42:04.194Z,4.77
2019-04-30T02:43:04.192Z,4.76
2019-04-30T02:44:04.183Z,4.86
2019-04-30T02:45:04.312Z,4.80
2019-04-30T02:46:04.161Z,4.75
2019-04-30T02:47:04.143Z,4.70
2019-04-30T02:48:04.136Z,4.77
2019-04-30T02:49:04.126Z,4.70
2019-04-30T02:50:15.363Z,4.70
2019-04-30T02:51:05.111Z,4.75
2019-04-30T02:52:04.100Z,4.73
2019-04-30T02:53:04.080Z,4.67
2019-04-30T02:54:04.076Z,4.62
2019-04-30T02:55:04.060Z,4.64
2019-04-30T02:56:04.054Z,4.61
2019-04-30T02:57:04.038Z,4.65
2019-04-30T02:58:04.027Z,4.55
2019-04-30T02:59:04.128Z,4.58
2019-04-30T03:00:04.005Z,4.55
2019-04-30T03:01:04.005Z,4.50
2019-04-30T03:02:03.983Z,4.50
2019-04-30T03:03:03.974Z,4.54
2019-04-30T03:04:03.960Z,4.52
2019-04-30T03:05:03.951Z,4.47
2019-04-30T03:06:03.943Z,4.50
2019-04-30T03:07:03.943Z,4.58
2019-04-30T03:08:03.922Z,4.51
2019-04-30T03:09:03.909Z,4.50
2019-04-30T03:10:03.901Z,4.50
2019-04-30T03:11:03.887Z,4.43
2019-04-30T03:12:03.889Z,4.40
2019-04-30T03:13:03.867Z,4.44
2019-04-30T03:14:03.857Z,4.46
2019-04-30T03:15:03.846Z,4.32
2019-04-30T03:16:03.837Z,4.40
2019-04-30T03:17:03.856Z,4.25
2019-04-30T03:18:03.817Z,4.28
2019-04-30T03:19:03.804Z,4.28
2019-04-30T03:20:03.834Z,4.26
2019-04-30T03:21:03.787Z,4.24
2019-04-30T03:22:03.779Z,4.16
2019-04-30T03:23:03.765Z,4.19
2019-04-30T03:24:03.753Z,4.16
2019-04-30T03:25:03.741Z,3.98
2019-04-30T03:26:03.730Z,4.10
2019-04-30T03:27:03.762Z,4.07
2019-04-30T03:28:03.708Z,4.03
2019-04-30T03:29:03.698Z,4.12
2019-04-30T03:30:03.693Z,4.01
2019-04-30T03:31:04.852Z,3.92
2019-04-30T03:32:03.837Z,3.98
2019-04-30T03:33:03.674Z,3.96
2019-04-30T03:34:03.646Z,3.89
2019-04-30T03:35:03.801Z,3.98
2019-04-30T03:36:03.638Z,3.96
2019-04-30T03:37:03.614Z,3.97
2019-04-30T03:38:03.611Z,4.01
2019-04-30T03:39:03.595Z,4.01
2019-04-30T03:40:03.587Z,3.97
2019-04-30T03:41:03.577Z,3.97
2019-04-30T03:42:03.565Z,4.04
2019-04-30T03:43:03.567Z,4.01
2019-04-30T03:44:17.177Z,3.96
2019-04-30T03:45:04.532Z,4.04
2019-04-30T03:46:03.543Z,3.96
2019-04-30T03:47:03.518Z,4.01
2019-04-30T03:48:03.511Z,4.03
2019-04-30T03:49:03.488Z,4.03
2019-04-30T03:50:03.477Z,4.00
2019-04-30T03:51:03.468Z,3.98
2019-04-30T03:52:03.459Z,4.04
2019-04-30T03:53:03.486Z,4.12
2019-04-30T03:54:03.436Z,4.06
2019-04-30T03:55:03.431Z,4.14
2019-04-30T03:56:03.415Z,4.15
2019-04-30T03:57:03.421Z,4.26
2019-04-30T03:58:03.394Z,4.37
2019-04-30T03:59:03.397Z,4.43
2019-04-30T04:00:03.381Z,4.52
2019-04-30T04:01:03.364Z,4.58
2019-04-30T04:02:03.350Z,4.65
2019-04-30T04:03:03.341Z,4.57
2019-04-30T04:04:03.338Z,4.51
2019-04-30T04:05:03.321Z,4.46
2019-04-30T04:06:03.308Z,4.44
2019-04-30T04:07:03.297Z,4.32
2019-04-30T04:08:03.292Z,4.40
2019-04-30T04:09:03.287Z,4.40
2019-04-30T04:10:03.270Z,4.36
2019-04-30T04:11:03.261Z,4.37
2019-04-30T04:12:03.244Z,4.37
2019-04-30T04:13:03.234Z,4.36
2019-04-30T04:14:03.230Z,4.37
2019-04-30T04:15:03.960Z,4.36
2019-04-30T04:16:03.202Z,4.39
2019-04-30T04:17:03.195Z,4.40
2019-04-30T04:18:03.181Z,4.36
2019-04-30T04:19:03.223Z,4.40
2019-04-30T04:20:03.159Z,4.39
2019-04-30T04:21:12.177Z,4.50
2019-04-30T04:22:04.330Z,4.54
2019-04-30T04:23:03.128Z,4.58
2019-04-30T04:24:03.126Z,4.65
2019-04-30T04:25:03.108Z,4.83
2019-04-30T04:26:03.095Z,4.96
2019-04-30T04:27:03.093Z,4.92
2019-04-30T04:28:03.075Z,4.83
2019-04-30T04:29:03.072Z,4.86
2019-04-30T04:30:03.054Z,4.88
2019-04-30T04:31:03.045Z,4.92
2019-04-30T04:32:03.033Z,4.89
2019-04-30T04:33:03.021Z,4.89
2019-04-30T04:34:03.019Z,4.96
2019-04-30T04:35:02.998Z,4.91
2019-04-30T04:36:02.988Z,5.01
2019-04-30T04:37:02.978Z,4.94
2019-04-30T04:38:02.974Z,4.98
2019-04-30T04:39:02.966Z,4.92
2019-04-30T04:40:02.945Z,4.92
2019-04-30T04:41:03.188Z,4.96
2019-04-30T04:42:02.923Z,4.95
2019-04-30T04:43:02.912Z,5.07
2019-04-30T04:44:02.942Z,5.09
2019-04-30T04:45:02.892Z,5.10
2019-04-30T04:46:02.884Z,5.12
2019-04-30T04:47:02.867Z,5.09
2019-04-30T04:48:02.857Z,5.30
2019-04-30T04:49:02.845Z,5.35
2019-04-30T04:50:02.848Z,5.25
2019-04-30T04:51:02.828Z,5.38
2019-04-30T04:52:02.814Z,5.49
2019-04-30T04:53:02.810Z,5.77
2019-04-30T04:54:03.391Z,6.58
2019-04-30T04:55:02.792Z,7.79
2019-04-30T04:56:02.778Z,8.72
2019-04-30T04:57:13.961Z,9.56
2019-04-30T04:58:03.749Z,10.33
2019-04-30T04:59:02.739Z,10.92
2019-04-30T05:00:07.370Z,11.41
2019-04-30T05:01:03.720Z,11.68
2019-04-30T05:02:02.706Z,12.09
2019-04-30T05:03:02.697Z,12.30
2019-04-30T05:04:02.685Z,12.45
2019-04-30T05:05:02.688Z,12.70
2019-04-30T05:06:02.923Z,12.97
2019-04-30T05:07:02.654Z,13.32
2019-04-30T05:08:02.641Z,13.71
2019-04-30T05:09:02.631Z,13.81
2019-04-30T05:10:02.647Z,13.87
2019-04-30T05:11:02.611Z,13.94
2019-04-30T05:12:02.599Z,14.10
2019-04-30T05:13:02.589Z,14.09
2019-04-30T05:14:02.579Z,14.21
2019-04-30T05:15:02.577Z,14.50
2019-04-30T05:16:02.558Z,14.42
2019-04-30T05:17:02.546Z,14.49
2019-04-30T05:18:02.537Z,14.91
2019-04-30T05:19:02.525Z,15.24
2019-04-30T05:20:02.523Z,15.28
2019-04-30T05:21:02.513Z,15.49
2019-04-30T05:22:02.506Z,15.72
2019-04-30T05:23:02.483Z,15.82
2019-04-30T05:24:02.473Z,15.72
2019-04-30T05:25:02.473Z,15.26
2019-04-30T05:26:02.453Z,15.21
2019-04-30T05:27:02.446Z,15.54
2019-04-30T05:28:02.432Z,15.74
2019-04-30T05:29:02.421Z,15.67
2019-04-30T05:30:02.412Z,15.28
2019-04-30T05:31:02.412Z,15.24
2019-04-30T05:32:02.391Z,15.08
2019-04-30T05:33:02.387Z,15.28
2019-04-30T05:34:02.370Z,15.60
2019-04-30T05:35:02.363Z,16.16
2019-04-30T05:36:02.358Z,16.53
2019-04-30T05:37:02.339Z,16.78
2019-04-30T05:38:02.331Z,16.93
2019-04-30T05:39:02.323Z,16.98
2019-04-30T05:40:02.308Z,16.80
2019-04-30T05:41:02.307Z,16.15
2019-04-30T05:42:02.288Z,15.56
2019-04-30T05:43:02.278Z,15.52
2019-04-30T05:44:02.304Z,15.92
2019-04-30T05:45:02.270Z,16.11
2019-04-30T05:46:02.255Z,16.16
2019-04-30T05:47:02.238Z,16.41
2019-04-30T05:48:02.229Z,16.65
2019-04-30T05:49:02.218Z,15.96
2019-04-30T05:50:02.209Z,16.03
2019-04-30T05:51:02.205Z,16.09
2019-04-30T05:52:02.186Z,15.60
2019-04-30T05:53:02.176Z,15.75
2019-04-30T05:54:02.168Z,16.07
2019-04-30T05:55:02.156Z,16.49
2019-04-30T05:56:03.300Z,16.40
2019-04-30T05:57:02.139Z,16.73
2019-04-30T05:58:02.129Z,17.23
2019-04-30T05:59:02.120Z,17.54
2019-04-30T06:00:02.117Z,17.78
2019-04-30T06:01:02.116Z,17.79
2019-04-30T06:02:02.091Z,18.03
2019-04-30T06:03:02.079Z,17.69
2019-04-30T06:04:02.069Z,17.32
2019-04-30T06:05:02.060Z,17.20
2019-04-30T06:06:02.058Z,17.40
2019-04-30T06:07:02.040Z,17.94
2019-04-30T06:08:02.031Z,17.88
2019-04-30T06:09:06.671Z,17.78
2019-04-30T06:10:03.011Z,18.04
2019-04-30T06:11:02.014Z,18.42
2019-04-30T06:12:01.991Z,18.68
2019-04-30T06:13:01.985Z,18.91
2019-04-30T06:14:01.971Z,19.02
2019-04-30T06:15:01.961Z,18.95
2019-04-30T06:16:01.963Z,18.80
2019-04-30T06:17:01.943Z,18.17
2019-04-30T06:18:10.853Z,17.62
2019-04-30T06:19:02.923Z,18.04
2019-04-30T06:20:01.920Z,18.07
2019-04-30T06:21:01.944Z,18.39
2019-04-30T06:22:07.560Z,18.50
2019-04-30T06:23:02.883Z,18.34
2019-04-30T06:24:01.874Z,18.40
2019-04-30T06:25:01.865Z,18.62
2019-04-30T06:26:09.671Z,18.68
2019-04-30T06:27:02.856Z,18.65
2019-04-30T06:28:01.841Z,19.02
2019-04-30T06:29:01.830Z,19.25
2019-04-30T06:30:01.817Z,19.24
2019-04-30T06:31:01.811Z,19.38
2019-04-30T06:32:01.814Z,18.87
2019-04-30T06:33:01.789Z,18.40
2019-04-30T06:34:01.782Z,18.29
2019-04-30T06:35:01.771Z,18.37
2019-04-30T06:36:01.760Z,18.40
2019-04-30T06:37:01.760Z,18.61
2019-04-30T06:38:01.744Z,18.77
2019-04-30T06:39:01.731Z,19.21
2019-04-30T06:40:01.722Z,19.39
2019-04-30T06:41:01.717Z,19.48
2019-04-30T06:42:06.829Z,18.09
2019-04-30T06:43:02.689Z,18.27
2019-04-30T06:44:01.682Z,18.58
2019-04-30T06:45:01.674Z,19.18
2019-04-30T06:46:01.662Z,19.50
2019-04-30T06:47:01.662Z,19.76
2019-04-30T06:48:01.652Z,20.12
2019-04-30T06:49:01.632Z,19.76
2019-04-30T06:50:01.625Z,19.75
2019-04-30T06:51:01.620Z,19.88
2019-04-30T06:52:01.614Z,20.10
2019-04-30T06:53:01.839Z,20.39
2019-04-30T06:54:01.586Z,20.18
2019-04-30T06:55:01.578Z,20.15
2019-04-30T06:56:01.565Z,20.16
2019-04-30T06:57:01.565Z,20.05
2019-04-30T06:58:11.985Z,20.09
2019-04-30T06:59:02.533Z,19.75
2019-04-30T07:00:01.524Z,19.70
2019-04-30T07:01:01.515Z,19.66
2019-04-30T07:02:01.513Z,19.88
2019-04-30T07:03:01.495Z,20.25
2019-04-30T07:04:01.490Z,20.41
2019-04-30T07:05:01.479Z,20.38
2019-04-30T07:06:01.464Z,19.61
2019-04-30T07:07:01.464Z,19.65
2019-04-30T07:08:08.825Z,19.36
2019-04-30T07:09:02.435Z,19.23
2019-04-30T07:10:01.426Z,19.43
2019-04-30T07:11:07.419Z,19.53
2019-04-30T07:12:02.498Z,19.78
2019-04-30T07:13:01.393Z,19.79
2019-04-30T07:14:01.382Z,19.70
2019-04-30T07:15:01.371Z,18.79
2019-04-30T07:16:01.365Z,18.17
2019-04-30T07:17:01.351Z,18.13
2019-04-30T07:18:01.350Z,17.95
2019-04-30T07:19:01.331Z,18.03
2019-04-30T07:20:01.323Z,17.59
2019-04-30T07:21:01.312Z,17.84
2019-04-30T07:22:01.303Z,18.31
2019-04-30T07:23:03.292Z,18.44
2019-04-30T07:24:01.278Z,18.34
2019-04-30T07:25:01.267Z,17.94
2019-04-30T07:26:01.259Z,18.04
2019-04-30T07:27:02.851Z,17.35
2019-04-30T07:28:01.244Z,17.20
2019-04-30T07:29:02.562Z,17.50
2019-04-30T07:30:01.222Z,17.64
2019-04-30T07:31:11.350Z,17.74
2019-04-30T07:32:02.194Z,17.63
2019-04-30T07:33:01.191Z,17.50
2019-04-30T07:34:01.189Z,17.43
2019-04-30T07:35:01.161Z,17.47
2019-04-30T07:36:01.792Z,17.38
2019-04-30T07:37:11.824Z,17.18
2019-04-30T07:38:04.884Z,17.03
2019-04-30T07:39:01.120Z,16.92
2019-04-30T07:40:01.108Z,16.80
2019-04-30T07:41:01.097Z,16.71
2019-04-30T07:42:01.087Z,16.56
2019-04-30T07:43:01.084Z,16.25
2019-04-30T07:44:01.065Z,16.12
2019-04-30T07:45:01.054Z,15.92
2019-04-30T07:46:01.049Z,15.96
2019-04-30T07:47:02.129Z,15.96
2019-04-30T07:48:01.041Z,15.86
2019-04-30T07:49:01.014Z,15.82
2019-04-30T07:50:01.034Z,15.70
2019-04-30T07:51:00.990Z,15.49
2019-04-30T07:52:01.932Z,15.19
2019-04-30T07:53:05.721Z,15.03
2019-04-30T07:54:01.961Z,15.12
2019-04-30T07:55:00.948Z,15.21
2019-04-30T07:56:02.202Z,15.21
2019-04-30T07:57:00.945Z,14.93
2019-04-30T07:58:00.921Z,14.71
2019-04-30T07:59:02.835Z,14.81
2019-04-30T08:00:00.902Z,14.78
2019-04-30T08:01:00.883Z,14.94
2019-04-30T08:02:10.168Z,15.12
2019-04-30T08:03:01.861Z,15.17
2019-04-30T08:04:00.861Z,15.21
2019-04-30T08:05:00.842Z,15.35
2019-04-30T08:06:00.960Z,15.30
2019-04-30T08:07:00.904Z,15.30
2019-04-30T08:08:16.255Z,15.12
2019-04-30T08:09:02.251Z,15.08
2019-04-30T08:10:00.786Z,14.90
2019-04-30T08:11:00.775Z,14.83
2019-04-30T08:12:00.842Z,14.81
2019-04-30T08:13:08.531Z,14.71
2019-04-30T08:14:02.137Z,14.75
2019-04-30T08:15:00.732Z,14.78
2019-04-30T08:16:00.724Z,14.74
2019-04-30T08:17:00.712Z,14.78
2019-04-30T08:18:05.526Z,14.69
2019-04-30T08:19:01.699Z,14.69
2019-04-30T08:20:00.680Z,14.78
2019-04-30T08:21:01.045Z,14.75
2019-04-30T08:22:00.661Z,14.62
2019-04-30T08:23:13.299Z,14.74
2019-04-30T08:24:01.645Z,14.50
2019-04-30T08:25:00.625Z,14.35
2019-04-30T08:26:00.618Z,14.19
2019-04-30T08:27:01.259Z,14.14
2019-04-30T08:28:00.595Z,14.01
2019-04-30T08:29:00.594Z,14.27
2019-04-30T08:30:00.576Z,14.31
2019-04-30T08:31:00.563Z,14.46
2019-04-30T08:32:00.554Z,14.56
2019-04-30T08:33:00.541Z,14.68
2019-04-30T08:34:00.539Z,14.74
2019-04-30T08:35:01.232Z,14.71
2019-04-30T08:36:00.985Z,14.81
2019-04-30T08:37:12.696Z,14.74
2019-04-30T08:38:01.486Z,14.84
2019-04-30T08:39:00.497Z,14.94
2019-04-30T08:40:03.389Z,14.86
2019-04-30T08:41:00.907Z,14.91
2019-04-30T08:42:00.443Z,15.05
2019-04-30T08:43:00.432Z,15.20
2019-04-30T08:44:00.463Z,15.21
2019-04-30T08:45:00.416Z,15.28
2019-04-30T08:46:00.406Z,15.43
2019-04-30T08:47:00.391Z,15.61
2019-04-30T08:48:00.380Z,15.68
2019-04-30T08:49:00.635Z,15.60
2019-04-30T08:50:02.607Z,15.46
2019-04-30T08:51:00.348Z,15.28
2019-04-30T08:52:00.339Z,15.06
2019-04-30T08:53:00.732Z,15.09
2019-04-30T08:54:00.316Z,15.23
2019-04-30T08:55:12.748Z,15.30
2019-04-30T08:56:01.293Z,15.46
2019-04-30T08:57:00.285Z,15.57
2019-04-30T08:58:09.331Z,15.70
2019-04-30T08:59:01.258Z,15.70
2019-04-30T09:00:00.259Z,15.94
2019-04-30T09:01:00.242Z,16.11
2019-04-30T09:02:12.727Z,16.26
2019-04-30T09:03:01.217Z,16.49
2019-04-30T09:04:00.207Z,16.48
2019-04-30T09:05:00.508Z,16.48
2019-04-30T09:06:00.196Z,16.42
2019-04-30T09:07:00.174Z,16.49
2019-04-30T09:08:00.164Z,16.62
2019-04-30T09:09:00.153Z,16.59
2019-04-30T09:10:01.276Z,16.53
2019-04-30T09:11:00.133Z,16.56
2019-04-30T09:12:00.123Z,16.78
2019-04-30T09:13:00.111Z,16.93
2019-04-30T09:14:00.103Z,17.08
2019-04-30T09:15:00.098Z,17.17
2019-04-30T09:16:00.079Z,17.32
2019-04-30T09:17:00.068Z,17.40
2019-04-30T09:18:05.925Z,17.38
2019-04-30T09:19:01.047Z,17.32
2019-04-30T09:20:00.053Z,17.33
2019-04-30T09:21:06.113Z,17.32
2019-04-30T09:22:01.016Z,17.35
2019-04-30T09:23:00.004Z,17.23
2019-04-30T09:23:59.994Z,17.29
2019-04-30T09:24:59.991Z,17.40
2019-04-30T09:25:59.971Z,17.51
2019-04-30T09:26:59.961Z,17.57
2019-04-30T09:27:59.952Z,17.81
2019-04-30T09:28:59.947Z,17.97
2019-04-30T09:29:59.943Z,18.00
2019-04-30T09:30:59.921Z,18.07
2019-04-30T09:31:59.908Z,17.76
2019-04-30T09:32:59.896Z,17.57
2019-04-30T09:34:00.895Z,17.59
2019-04-30T09:34:59.907Z,17.69
2019-04-30T09:35:59.867Z,17.62
2019-04-30T09:36:59.859Z,17.55
2019-04-30T09:38:01.859Z,17.64
2019-04-30T09:39:01.469Z,17.62
2019-04-30T09:39:59.823Z,17.62
2019-04-30T09:40:59.823Z,17.55
2019-04-30T09:41:59.804Z,17.44
2019-04-30T09:43:00.406Z,17.50
2019-04-30T09:43:59.853Z,17.66
2019-04-30T09:44:59.766Z,17.70
2019-04-30T09:45:59.765Z,17.81
2019-04-30T09:46:59.748Z,18.07
2019-04-30T09:47:59.735Z,18.04
2019-04-30T09:48:59.954Z,18.07
2019-04-30T09:49:59.798Z,18.27
2019-04-30T09:51:00.801Z,18.19
2019-04-30T09:52:00.134Z,18.19
2019-04-30T09:53:00.405Z,18.42
2019-04-30T09:54:03.177Z,18.34
2019-04-30T09:54:59.992Z,18.29
2019-04-30T09:55:59.778Z,18.43
2019-04-30T09:56:59.637Z,18.36
2019-04-30T09:57:59.626Z,18.44
2019-04-30T09:58:59.617Z,18.57
2019-04-30T10:00:00.619Z,18.59
2019-04-30T10:00:59.603Z,18.49
2019-04-30T10:01:59.585Z,18.50
2019-04-30T10:03:00.411Z,18.54
2019-04-30T10:04:00.461Z,18.77
2019-04-30T10:05:00.030Z,18.79
2019-04-30T10:05:59.552Z,18.74
2019-04-30T10:06:59.696Z,18.68
2019-04-30T10:07:59.553Z,18.73
2019-04-30T10:08:59.779Z,18.80
2019-04-30T10:09:59.503Z,18.67
2019-04-30T10:10:59.497Z,18.76
2019-04-30T10:11:59.705Z,18.54
2019-04-30T10:12:59.468Z,18.40
2019-04-30T10:13:59.455Z,18.25
2019-04-30T10:14:59.443Z,17.84
2019-04-30T10:15:59.443Z,17.54
2019-04-30T10:16:59.562Z,17.41
2019-04-30T10:17:59.411Z,17.30
2019-04-30T10:19:01.401Z,17.43
2019-04-30T10:19:59.390Z,17.73
2019-04-30T10:21:00.899Z,17.97
2019-04-30T10:21:59.370Z,18.07
2019-04-30T10:22:59.657Z,18.31
2019-04-30T10:24:12.516Z,18.47
2019-04-30T10:25:00.337Z,18.36
2019-04-30T10:25:59.326Z,18.46
2019-04-30T10:26:59.329Z,18.57
2019-04-30T10:27:59.831Z,18.62
2019-04-30T10:28:59.324Z,18.62
2019-04-30T10:29:59.471Z,18.64
2019-04-30T10:30:59.272Z,18.82
2019-04-30T10:31:59.272Z,18.87
2019-04-30T10:32:59.576Z,18.92
2019-04-30T10:33:59.241Z,18.97
2019-04-30T10:34:59.233Z,18.65
2019-04-30T10:35:59.507Z,18.64
2019-04-30T10:37:01.257Z,18.64
2019-04-30T10:37:59.627Z,18.52
2019-04-30T10:38:59.598Z,18.49
2019-04-30T10:39:59.730Z,18.64
2019-04-30T10:40:59.172Z,18.76
2019-04-30T10:41:59.166Z,18.86
2019-04-30T10:42:59.146Z,18.92
2019-04-30T10:43:59.256Z,18.84
2019-04-30T10:45:00.303Z,18.87
2019-04-30T10:45:59.113Z,18.90
2019-04-30T10:46:59.400Z,18.79
2019-04-30T10:47:59.305Z,18.73
2019-04-30T10:48:59.101Z,18.76
2019-04-30T10:49:59.072Z,18.68
2019-04-30T10:50:59.329Z,18.65
2019-04-30T10:52:01.081Z,18.40
2019-04-30T10:52:59.196Z,18.34
2019-04-30T10:53:59.244Z,18.28
2019-04-30T10:54:59.534Z,18.43
2019-04-30T10:55:59.463Z,18.44
2019-04-30T10:56:59.305Z,18.54
2019-04-30T10:57:59.375Z,18.47
2019-04-30T10:58:58.994Z,18.59
2019-04-30T10:59:58.967Z,18.82
2019-04-30T11:00:59.565Z,18.79
2019-04-30T11:01:59.246Z,18.68
2019-04-30T11:02:59.318Z,18.46
2019-04-30T11:03:58.925Z,18.47
2019-04-30T11:04:58.911Z,18.58
2019-04-30T11:05:58.900Z,18.46
2019-04-30T11:07:00.536Z,18.67
2019-04-30T11:07:59.413Z,18.67
2019-04-30T11:08:58.869Z,18.79
2019-04-30T11:09:58.988Z,18.95
2019-04-30T11:10:58.848Z,18.97
2019-04-30T11:11:59.383Z,18.94
2019-04-30T11:12:58.826Z,18.86
2019-04-30T11:13:58.816Z,18.87
2019-04-30T11:14:58.811Z,18.97
2019-04-30T11:16:06.494Z,19.05
2019-04-30T11:17:00.221Z,19.20
2019-04-30T11:17:59.675Z,19.23
2019-04-30T11:18:59.279Z,19.42
2019-04-30T11:19:59.284Z,19.39
2019-04-30T11:20:59.668Z,19.32
2019-04-30T11:21:58.920Z,19.38
2019-04-30T11:22:58.929Z,19.39
2019-04-30T11:23:59.430Z,19.48
2019-04-30T11:25:02.464Z,19.50
2019-04-30T11:26:00.130Z,19.46
2019-04-30T11:26:59.921Z,19.43
2019-04-30T11:27:59.319Z,19.48
2019-04-30T11:28:58.895Z,19.29
2019-04-30T11:30:03.318Z,19.24
2019-04-30T11:30:59.788Z,19.25
2019-04-30T11:31:58.844Z,19.38
2019-04-30T11:32:58.807Z,19.36
2019-04-30T11:33:58.602Z,19.25
2019-04-30T11:34:58.591Z,19.10
2019-04-30T11:36:03.110Z,18.92
2019-04-30T11:36:59.600Z,18.94
2019-04-30T11:37:58.559Z,18.86
2019-04-30T11:38:58.720Z,18.73
2019-04-30T11:39:58.537Z,18.87
2019-04-30T11:40:58.529Z,19.02
2019-04-30T11:41:58.516Z,19.08
2019-04-30T11:42:58.520Z,19.25
2019-04-30T11:43:59.504Z,19.29
2019-04-30T11:44:58.668Z,19.32
2019-04-30T11:46:00.233Z,19.21
2019-04-30T11:46:59.568Z,18.97
2019-04-30T11:48:00.408Z,19.01
2019-04-30T11:48:58.762Z,19.08
2019-04-30T11:49:58.431Z,19.02
2019-04-30T11:50:59.532Z,19.14
2019-04-30T11:51:58.422Z,19.24
2019-04-30T11:53:14.029Z,19.01
2019-04-30T11:53:59.512Z,19.11
2019-04-30T11:54:59.665Z,18.87
2019-04-30T11:55:59.207Z,18.82
2019-04-30T11:56:58.813Z,18.82
2019-04-30T11:57:59.242Z,19.05
2019-04-30T11:58:58.857Z,19.21
2019-04-30T11:59:58.325Z,19.21
2019-04-30T12:00:59.269Z,19.24
2019-04-30T12:01:58.303Z,19.31
2019-04-30T12:02:59.341Z,19.35
2019-04-30T12:03:59.814Z,19.21
2019-04-30T12:04:58.269Z,19.21
2019-04-30T12:05:58.942Z,19.33
2019-04-30T12:06:58.251Z,19.32
2019-04-30T12:07:59.752Z,19.43
2019-04-30T12:08:59.129Z,19.69
2019-04-30T12:09:59.564Z,19.69
2019-04-30T12:10:58.206Z,19.76
2019-04-30T12:11:58.952Z,19.83
2019-04-30T12:12:58.704Z,19.57
2019-04-30T12:13:58.173Z,19.31
2019-04-30T12:15:00.247Z,19.38
2019-04-30T12:15:58.852Z,19.23
2019-04-30T12:16:58.141Z,19.23
2019-04-30T12:17:58.159Z,19.35
2019-04-30T12:18:58.980Z,19.57
2019-04-30T12:19:58.683Z,19.61
2019-04-30T12:20:58.098Z,19.70
2019-04-30T12:21:58.088Z,19.83
2019-04-30T12:22:59.173Z,19.79
2019-04-30T12:23:58.076Z,19.93
2019-04-30T12:25:03.287Z,19.79
2019-04-30T12:26:02.360Z,19.84
2019-04-30T12:26:58.034Z,19.83
2019-04-30T12:27:59.607Z,19.86
2019-04-30T12:28:58.019Z,19.88
2019-04-30T12:29:59.461Z,19.90
2019-04-30T12:30:58.890Z,19.88
2019-04-30T12:31:57.979Z,19.93
2019-04-30T12:32:59.075Z,20.03
2019-04-30T12:33:57.965Z,19.94
2019-04-30T12:34:57.946Z,20.03
2019-04-30T12:35:59.583Z,20.05
2019-04-30T12:36:59.645Z,20.02
2019-04-30T12:37:58.852Z,20.00
2019-04-30T12:38:57.912Z,19.91
2019-04-30T12:39:59.367Z,20.03
2019-04-30T12:40:57.882Z,19.98
2019-04-30T12:41:58.946Z,19.91
2019-04-30T12:42:59.831Z,19.78
2019-04-30T12:43:57.865Z,19.57
2019-04-30T12:44:59.453Z,19.61
2019-04-30T12:46:03.406Z,19.55
2019-04-30T12:46:58.824Z,19.63
2019-04-30T12:47:57.807Z,19.68
2019-04-30T12:48:59.579Z,19.60
2019-04-30T12:50:00.883Z,19.54
2019-04-30T12:50:59.002Z,19.70
2019-04-30T12:51:58.756Z,19.42
2019-04-30T12:52:59.436Z,19.38
2019-04-30T12:53:57.752Z,19.23
2019-04-30T12:54:57.739Z,19.06
2019-04-30T12:56:00.221Z,19.20
2019-04-30T12:56:57.712Z,19.35
2019-04-30T12:57:59.611Z,19.42
2019-04-30T12:58:57.723Z,19.47
2019-04-30T13:00:00.035Z,19.46
2019-04-30T13:00:59.130Z,19.60
2019-04-30T13:01:59.348Z,19.63